Time;durP1;ratioP1;P1;durP2;ratioP2;P2;SDS_P1;SDS_P2;PMS_P1;PMS_P2;Temp;Humidity;BMP_temperature;BMP_pressure;BME280_temperature;BME280_humidity;BME280_pressure;Samples;Min_cycle;Max_cycle;Signal;HPM_P1;HPM_P2
2022/03/15 00:00:50;;;;;;;8.15;6.45;;;;;;;5.32;100.00;97446.56;5051073;28;20069;-52
2022/03/15 00:03:19;;;;;;;8.95;6.43;;;;;;;5.08;100.00;97441.78;5050693;28;20065;-49
2022/03/15 00:05:47;;;;;;;13.27;6.70;;;;;;;5.21;100.00;97431.47;5052916;28;20088;-52
2022/03/15 00:08:17;;;;;;;13.30;7.15;;;;;;;5.11;100.00;97435.53;5052866;28;20519;-50
2022/03/15 00:10:48;;;;;;;7.90;6.93;;;;;;;5.20;100.00;97421.97;5051410;28;20085;-53
2022/03/15 00:13:16;;;;;;;15.50;7.63;;;;;;;5.21;100.00;97424.47;5049642;28;20072;-51
2022/03/15 00:15:45;;;;;;;10.90;7.55;;;;;;;5.21;100.00;97421.03;5050981;28;20432;-50
2022/03/15 00:18:13;;;;;;;12.63;7.32;;;;;;;5.10;100.00;97412.94;5051175;28;20065;-46
2022/03/15 00:20:41;;;;;;;13.02;7.88;;;;;;;5.05;100.00;97413.19;5051592;28;20072;-53
2022/03/15 00:23:10;;;;;;;10.60;7.95;;;;;;;5.10;100.00;97415.56;5051343;28;20095;-52
2022/03/15 00:25:38;;;;;;;12.13;7.90;;;;;;;5.05;100.00;97407.13;5050722;28;20102;-53
2022/03/15 00:28:08;;;;;;;9.32;7.22;;;;;;;5.05;100.00;97402.72;5050247;28;20076;-48
2022/03/15 00:30:36;;;;;;;11.03;8.07;;;;;;;5.13;100.00;97402.31;5050759;28;20132;-55
2022/03/15 00:33:05;;;;;;;10.20;7.78;;;;;;;5.11;100.00;97398.94;5044223;28;20627;-51
2022/03/15 00:35:33;;;;;;;11.32;7.90;;;;;;;5.21;100.00;97400.94;5050459;28;20085;-47
2022/03/15 00:38:02;;;;;;;11.10;8.18;;;;;;;5.17;100.00;97404.66;5030473;28;20065;-47
2022/03/15 00:40:30;;;;;;;10.57;7.82;;;;;;;5.31;100.00;97396.03;5044125;28;20093;-51
2022/03/15 00:42:58;;;;;;;11.15;8.07;;;;;;;5.31;100.00;97387.34;5044342;28;20080;-48
2022/03/15 00:45:28;;;;;;;12.93;9.43;;;;;;;5.39;100.00;97388.56;5044400;28;20065;-57
2022/03/15 00:47:57;;;;;;;13.68;7.78;;;;;;;5.42;100.00;97387.53;5050544;28;20099;-50
2022/03/15 00:50:27;;;;;;;10.82;8.60;;;;;;;5.40;100.00;97390.25;5050463;28;20096;-50
2022/03/15 00:52:56;;;;;;;9.93;8.13;;;;;;;5.35;100.00;97386.22;5049727;28;20103;-47
2022/03/15 00:55:24;;;;;;;10.88;7.93;;;;;;;5.38;100.00;97388.66;5049673;28;20073;-47
2022/03/15 00:57:52;;;;;;;13.43;8.50;;;;;;;5.50;100.00;97393.16;5060070;28;20064;-51
2022/03/15 01:00:21;;;;;;;10.02;8.43;;;;;;;5.53;100.00;97392.16;5044962;28;20069;-47
2022/03/15 01:02:50;;;;;;;11.45;8.50;;;;;;;5.48;100.00;97381.97;5049595;28;20462;-51
2022/03/15 01:05:19;;;;;;;10.67;8.33;;;;;;;5.51;100.00;97389.63;5050249;28;20095;-47
2022/03/15 01:07:47;;;;;;;11.18;8.30;;;;;;;5.62;100.00;97394.22;5052963;28;21063;-48
2022/03/15 01:10:15;;;;;;;11.88;8.63;;;;;;;5.13;100.00;97397.09;5045534;28;20076;-52
2022/03/15 01:12:43;;;;;;;9.43;7.57;;;;;;;4.85;100.00;97408.25;5050114;28;20071;-48
2022/03/15 01:15:12;;;;;;;12.48;8.40;;;;;;;4.69;100.00;97413.50;5050198;28;20053;-48
2022/03/15 01:17:40;;;;;;;11.18;8.27;;;;;;;5.07;100.00;97413.13;5050574;28;20096;-50
2022/03/15 01:20:11;;;;;;;14.95;8.52;;;;;;;5.12;100.00;97406.69;5029814;28;21540;-46
2022/03/15 01:22:39;;;;;;;13.55;8.68;;;;;;;5.15;100.00;97392.59;5030178;28;20645;-45
2022/03/15 01:25:09;;;;;;;9.40;8.13;;;;;;;4.79;100.00;97388.53;5029731;28;20061;-49
2022/03/15 01:27:37;;;;;;;11.77;8.37;;;;;;;4.55;100.00;97377.69;5030122;28;20072;-46
2022/03/15 01:30:07;;;;;;;13.65;8.73;;;;;;;4.64;100.00;97373.69;5032569;28;20071;-47
2022/03/15 01:32:35;;;;;;;13.65;9.23;;;;;;;4.91;100.00;97374.75;5050304;28;20087;-48
2022/03/15 01:35:04;;;;;;;14.63;9.40;;;;;;;5.09;100.00;97372.88;5049671;28;20455;-46
2022/03/15 01:37:34;;;;;;;11.23;8.95;;;;;;;5.14;100.00;97378.69;5054753;28;20065;-52
2022/03/15 01:40:03;;;;;;;12.97;9.57;;;;;;;5.13;100.00;97374.41;5049224;28;20076;-49
2022/03/15 01:42:31;;;;;;;17.25;10.43;;;;;;;5.05;100.00;97375.75;5049665;28;20573;-50
2022/03/15 01:45:02;;;;;;;13.65;9.80;;;;;;;5.09;100.00;97365.03;5049363;28;20490;-48
2022/03/15 01:47:30;;;;;;;13.95;10.05;;;;;;;5.15;100.00;97359.44;5050416;28;20100;-48
2022/03/15 01:49:58;;;;;;;15.45;10.13;;;;;;;5.16;100.00;97355.94;5049223;28;20060;-45
2022/03/15 01:52:27;;;;;;;16.80;10.10;;;;;;;5.19;100.00;97360.94;5049598;28;20589;-48
2022/03/15 01:54:57;;;;;;;15.63;10.60;;;;;;;5.18;100.00;97354.03;5051595;28;20076;-52
2022/03/15 01:57:25;;;;;;;13.90;10.10;;;;;;;4.90;100.00;97352.19;5055298;28;20072;-47
2022/03/15 01:59:54;;;;;;;16.02;10.57;;;;;;;5.06;100.00;97343.44;5045538;28;20080;-46
2022/03/15 02:02:22;;;;;;;12.93;9.77;;;;;;;4.99;100.00;97354.28;5049875;28;20542;-54
2022/03/15 02:04:50;;;;;;;16.52;10.32;;;;;;;4.76;100.00;97342.50;5049051;28;20064;-50
2022/03/15 02:07:18;;;;;;;15.73;10.25;;;;;;;4.61;100.00;97337.31;5050420;28;20075;-51
2022/03/15 02:09:47;;;;;;;14.07;10.23;;;;;;;4.64;100.00;97344.97;5045769;28;20073;-50
2022/03/15 02:12:17;;;;;;;14.20;10.23;;;;;;;4.78;100.00;97352.88;5049072;28;20077;-49
2022/03/15 02:14:45;;;;;;;16.17;10.88;;;;;;;4.70;100.00;97352.47;5049174;28;20088;-52
2022/03/15 02:17:13;;;;;;;18.42;11.20;;;;;;;4.92;100.00;97346.84;5049694;28;20092;-49
2022/03/15 02:19:42;;;;;;;14.15;10.40;;;;;;;4.92;100.00;97350.34;5048398;28;20679;-49
2022/03/15 02:22:12;;;;;;;15.05;10.68;;;;;;;4.68;100.00;97346.47;5048762;28;20075;-46
2022/03/15 02:24:40;;;;;;;14.48;11.25;;;;;;;4.83;100.00;97350.00;5048877;28;20072;-51
2022/03/15 02:27:09;;;;;;;11.98;9.80;;;;;;;4.74;100.00;97339.13;5048839;28;20559;-49
2022/03/15 02:29:37;;;;;;;13.85;10.02;;;;;;;4.73;100.00;97350.53;5048823;28;20482;-48
2022/03/15 02:32:06;;;;;;;15.23;11.02;;;;;;;4.84;100.00;97338.63;5048578;28;20114;-52
2022/03/15 02:34:35;;;;;;;15.65;10.18;;;;;;;4.88;100.00;97335.72;5048827;28;20077;-46
2022/03/15 02:37:03;;;;;;;15.10;11.05;;;;;;;4.46;100.00;97321.56;5053930;28;20061;-47
2022/03/15 02:39:33;;;;;;;14.20;10.30;;;;;;;4.43;100.00;97321.72;5048262;28;20061;-48
2022/03/15 02:42:01;;;;;;;14.07;9.80;;;;;;;4.70;100.00;97331.56;5048600;28;20099;-47
2022/03/15 02:44:30;;;;;;;14.73;10.52;;;;;;;4.45;100.00;97317.28;5048724;28;20080;-46
2022/03/15 02:46:58;;;;;;;15.30;11.27;;;;;;;4.57;100.00;97317.50;5049002;28;20075;-48
2022/03/15 02:49:26;;;;;;;17.85;11.77;;;;;;;4.72;100.00;97314.88;5048199;28;20068;-49
2022/03/15 02:51:55;;;;;;;18.05;12.02;;;;;;;4.65;100.00;97305.72;5048722;28;20072;-47
2022/03/15 02:54:23;;;;;;;17.20;11.98;;;;;;;4.62;100.00;97302.44;5051367;28;20045;-45
2022/03/15 02:56:53;;;;;;;16.50;12.75;;;;;;;4.76;100.00;97303.31;5048297;28;20503;-54
2022/03/15 02:59:22;;;;;;;15.30;12.50;;;;;;;4.85;100.00;97304.56;5046127;28;20469;-50
2022/03/15 03:01:51;;;;;;;16.08;11.85;;;;;;;4.93;100.00;97304.97;5048119;28;20037;-48
2022/03/15 03:04:21;;;;;;;15.32;11.73;;;;;;;4.94;100.00;97306.63;5047732;28;20071;-47
2022/03/15 03:06:49;;;;;;;15.13;10.90;;;;;;;4.73;100.00;97300.03;5049607;28;20065;-49
2022/03/15 03:09:17;;;;;;;18.35;11.05;;;;;;;4.63;100.00;97298.88;5047747;28;20072;-48
2022/03/15 03:11:46;;;;;;;16.17;11.77;;;;;;;4.60;100.00;97294.66;5048782;28;20099;-47
2022/03/15 03:14:16;;;;;;;20.67;12.57;;;;;;;4.62;100.00;97289.38;5048734;28;20695;-51
2022/03/15 03:16:44;;;;;;;15.90;11.57;;;;;;;4.64;100.00;97287.50;5049544;28;20060;-45
2022/03/15 03:19:13;;;;;;;15.70;12.50;;;;;;;4.59;100.00;97294.78;5052200;28;20064;-49
2022/03/15 03:21:41;;;;;;;24.00;11.70;;;;;;;4.63;100.00;97296.28;5052424;28;20065;-49
2022/03/15 03:24:09;;;;;;;15.23;11.40;;;;;;;4.58;100.00;97287.88;5052065;28;20075;-53
2022/03/15 03:26:40;;;;;;;17.13;11.80;;;;;;;4.60;100.00;97292.06;5052854;28;20096;-49
2022/03/15 03:29:09;;;;;;;21.92;12.82;;;;;;;4.56;100.00;97300.16;5048440;28;20534;-51
2022/03/15 03:31:40;;;;;;;15.25;11.57;;;;;;;4.39;100.00;97299.34;5052185;28;20076;-47
2022/03/15 03:34:11;;;;;;;15.80;12.23;;;;;;;4.48;100.00;97303.22;5052258;28;20075;-47
2022/03/15 03:36:40;;;;;;;16.92;11.70;;;;;;;3.94;100.00;97303.53;5056088;28;20076;-46
2022/03/15 03:39:27;;;;;;;18.25;11.88;;;;;;;3.85;100.00;97305.81;5050058;28;20127;-48
2022/03/15 03:41:57;;;;;;;17.30;12.95;;;;;;;4.17;100.00;97298.84;5051880;28;20052;-47
2022/03/15 03:44:25;;;;;;;16.60;12.82;;;;;;;4.40;100.00;97293.19;5052242;28;20103;-49
2022/03/15 03:46:55;;;;;;;16.95;12.77;;;;;;;4.50;100.00;97303.94;5051703;28;20555;-54
2022/03/15 03:49:23;;;;;;;19.63;12.55;;;;;;;4.38;100.00;97295.06;5051658;28;20522;-46
2022/03/15 03:51:52;;;;;;;18.60;12.80;;;;;;;4.64;100.00;97301.41;5051651;28;20522;-48
2022/03/15 03:54:21;;;;;;;19.30;13.05;;;;;;;4.57;100.00;97296.63;5055844;28;20072;-46
2022/03/15 03:56:49;;;;;;;17.10;12.63;;;;;;;4.70;100.00;97295.00;5051594;28;20076;-45
2022/03/15 03:59:17;;;;;;;18.98;13.32;;;;;;;4.68;100.00;97299.44;5051675;28;20570;-52
2022/03/15 04:01:45;;;;;;;18.95;13.70;;;;;;;4.58;100.00;97300.94;5051241;28;20680;-55
2022/03/15 04:04:15;;;;;;;18.73;13.18;;;;;;;4.49;100.00;97290.06;5051558;28;20061;-47
2022/03/15 04:06:43;;;;;;;17.65;13.00;;;;;;;4.47;100.00;97284.09;5052026;28;20061;-50
2022/03/15 04:09:12;;;;;;;17.65;13.13;;;;;;;4.20;100.00;97285.63;5051225;28;20071;-52
2022/03/15 04:11:41;;;;;;;20.30;13.25;;;;;;;4.47;100.00;97293.69;5051261;28;20088;-56
2022/03/15 04:14:11;;;;;;;20.52;13.93;;;;;;;4.55;100.00;97285.44;5050881;28;20476;-46
2022/03/15 04:16:40;;;;;;;21.40;13.52;;;;;;;4.35;100.00;97289.16;5051196;28;20060;-47
2022/03/15 04:19:09;;;;;;;19.98;13.40;;;;;;;4.30;100.00;97281.56;5050959;28;20076;-50
2022/03/15 04:21:38;;;;;;;19.30;13.52;;;;;;;4.36;100.00;97286.44;5051233;28;20570;-48
2022/03/15 04:24:07;;;;;;;20.23;14.32;;;;;;;4.44;100.00;97292.09;5051195;28;20060;-51
2022/03/15 04:26:35;;;;;;;19.95;14.18;;;;;;;4.59;100.00;97298.22;5051018;28;20099;-52
2022/03/15 04:29:04;;;;;;;21.92;15.52;;;;;;;4.62;100.00;97297.22;5049803;28;20083;-49
2022/03/15 04:31:32;;;;;;;28.95;15.23;;;;;;;4.58;100.00;97299.16;5050996;28;20061;-48
2022/03/15 04:34:01;;;;;;;21.63;14.43;;;;;;;4.63;100.00;97291.88;5051244;28;20069;-48
2022/03/15 04:36:29;;;;;;;21.67;14.23;;;;;;;4.73;100.00;97298.25;5054509;28;20064;-48
2022/03/15 04:38:59;;;;;;;19.48;13.27;;;;;;;4.76;100.00;97289.41;5050425;28;20084;-50
2022/03/15 04:41:27;;;;;;;18.33;13.85;;;;;;;4.59;100.00;97295.59;5051247;28;20088;-47
2022/03/15 04:43:56;;;;;;;21.60;15.32;;;;;;;4.76;100.00;97287.66;5050544;28;20464;-46
2022/03/15 04:46:24;;;;;;;22.05;14.27;;;;;;;4.75;100.00;97295.59;5050882;28;20069;-49
2022/03/15 04:48:53;;;;;;;21.67;14.45;;;;;;;4.76;100.00;97305.09;5050857;28;20068;-50
2022/03/15 04:51:22;;;;;;;20.15;14.13;;;;;;;4.60;100.00;97296.44;5050130;28;20072;-48
2022/03/15 04:53:51;;;;;;;20.33;13.85;;;;;;;4.74;100.00;97301.72;5051151;28;20084;-49
2022/03/15 04:56:21;;;;;;;20.25;15.23;;;;;;;4.50;100.00;97302.19;5048985;28;20557;-48
2022/03/15 04:58:49;;;;;;;24.85;16.27;;;;;;;4.65;100.00;97300.50;5044849;28;20057;-51
2022/03/15 05:01:17;;;;;;;23.38;16.85;;;;;;;4.76;100.00;97294.66;5049630;28;20072;-48
2022/03/15 05:03:46;;;;;;;26.00;16.52;;;;;;;4.76;100.00;97286.81;5050223;28;20072;-51
2022/03/15 05:06:14;;;;;;;22.85;16.55;;;;;;;4.89;100.00;97287.78;5049972;28;20486;-44
2022/03/15 05:08:42;;;;;;;23.77;16.23;;;;;;;4.89;100.00;97282.56;5049190;28;20479;-48
2022/03/15 05:11:10;;;;;;;26.30;17.02;;;;;;;4.79;100.00;97280.56;5050782;28;20096;-45
2022/03/15 05:13:45;;;;;;;24.52;16.95;;;;;;;4.68;100.00;97284.66;5050239;28;20064;-52
2022/03/15 05:16:17;;;;;;;23.83;16.48;;;;;;;4.66;100.00;97285.66;5050138;28;20531;-45
2022/03/15 05:18:45;;;;;;;28.40;16.50;;;;;;;4.63;100.00;97285.81;5044207;28;20083;-53
2022/03/15 05:21:16;;;;;;;24.35;16.73;;;;;;;4.75;100.00;97285.97;5049703;28;20061;-45
2022/03/15 05:23:46;;;;;;;24.42;16.75;;;;;;;4.88;100.00;97291.31;5050376;28;20103;-53
2022/03/15 05:26:16;;;;;;;26.00;16.87;;;;;;;4.93;100.00;97281.44;5050321;28;20142;-47
2022/03/15 05:28:49;;;;;;;26.55;17.73;;;;;;;4.60;100.00;97270.31;5049948;28;20459;-46
2022/03/15 05:31:17;;;;;;;22.60;15.95;;;;;;;4.72;100.00;97278.31;5049459;28;20515;-52
2022/03/15 05:33:46;;;;;;;22.83;16.48;;;;;;;4.55;100.00;97277.59;5050062;28;20072;-48
2022/03/15 05:36:14;;;;;;;24.05;16.20;;;;;;;4.89;100.00;97284.34;5052789;28;20075;-47
2022/03/15 05:38:43;;;;;;;23.88;17.13;;;;;;;4.88;100.00;97283.47;5045183;28;20490;-45
2022/03/15 05:41:11;;;;;;;27.63;15.77;;;;;;;4.78;100.00;97282.31;5049657;28;20083;-47
2022/03/15 05:43:56;;;;;;;28.10;17.35;;;;;;;4.65;100.00;97278.75;5048171;28;20068;-49
2022/03/15 05:46:24;;;;;;;41.75;21.23;;;;;;;4.64;100.00;97283.09;5049678;28;20069;-47
2022/03/15 05:48:53;;;;;;;33.58;19.05;;;;;;;4.62;100.00;97290.22;5049642;28;20075;-48
2022/03/15 05:51:21;;;;;;;36.75;19.70;;;;;;;4.75;100.00;97301.66;5048344;28;20088;-45
2022/03/15 05:53:49;;;;;;;27.10;16.42;;;;;;;4.48;100.00;97293.59;5051959;28;20076;-50
2022/03/15 05:56:18;;;;;;;35.90;18.05;;;;;;;4.87;100.00;97281.78;5050047;28;20463;-51
2022/03/15 05:58:47;;;;;;;27.38;17.67;;;;;;;5.06;100.00;97285.94;5049028;28;20045;-46
2022/03/15 06:01:17;;;;;;;29.48;18.00;;;;;;;5.02;100.00;97279.22;5048899;28;20068;-50
2022/03/15 06:03:46;;;;;;;29.52;18.48;;;;;;;5.16;100.00;97279.22;5049122;28;20072;-51
2022/03/15 06:06:15;;;;;;;27.20;17.05;;;;;;;5.27;100.00;97289.09;5053749;28;20060;-45
2022/03/15 06:08:44;;;;;;;32.40;16.25;;;;;;;5.22;100.00;97291.94;5048879;28;20080;-49
2022/03/15 06:11:13;;;;;;;21.05;15.02;;;;;;;4.94;100.00;97300.56;5049312;28;20076;-47
2022/03/15 06:13:41;;;;;;;23.65;15.30;;;;;;;4.92;100.00;97299.81;5043192;28;20061;-47
2022/03/15 06:16:10;;;;;;;22.15;15.30;;;;;;;5.00;100.00;97293.22;5042727;28;20084;-53
2022/03/15 06:18:40;;;;;;;26.23;16.73;;;;;;;5.11;100.00;97310.88;5048912;28;20475;-57
2022/03/15 06:21:08;;;;;;;25.48;16.95;;;;;;;4.68;100.00;97302.06;5042687;28;20072;-46
2022/03/15 06:23:37;;;;;;;26.02;16.58;;;;;;;5.11;100.00;97287.34;5048973;28;20068;-47
2022/03/15 06:26:25;;;;;;;28.85;17.17;;;;;;;5.13;100.00;97289.91;5047995;28;20080;-55
2022/03/15 06:29:11;;;;;;;28.23;17.95;;;;;;;5.44;100.00;97287.13;5049040;28;20052;-50
2022/03/15 06:31:40;;;;;;;30.83;18.05;;;;;;;5.38;100.00;97295.34;5048489;28;20064;-47
2022/03/15 06:34:10;;;;;;;30.60;19.63;;;;;;;5.29;100.00;97297.66;5048891;28;20064;-49
2022/03/15 06:36:38;;;;;;;28.02;16.83;;;;;;;5.62;100.00;97282.56;5050770;28;20075;-47
2022/03/15 06:39:07;;;;;;;24.42;16.38;;;;;;;5.45;100.00;97295.81;5048461;28;20084;-46
2022/03/15 06:41:37;;;;;;;26.45;17.70;;;;;;;5.69;100.00;97288.25;5049178;28;20106;-48
2022/03/15 06:44:06;;;;;;;28.23;18.10;;;;;;;5.91;100.00;97283.34;5042197;28;20072;-53
2022/03/15 06:46:34;;;;;;;25.92;16.83;;;;;;;5.87;100.00;97287.09;5047927;28;20072;-49
2022/03/15 06:49:04;;;;;;;27.77;17.27;;;;;;;5.95;100.00;97286.66;5047965;28;20064;-46
2022/03/15 06:51:34;;;;;;;27.27;18.73;;;;;;;5.58;100.00;97304.59;5047472;28;20064;-52
2022/03/15 06:54:02;;;;;;;27.05;18.13;;;;;;;5.44;100.00;97320.28;5050299;28;20076;-47
2022/03/15 06:56:31;;;;;;;29.33;18.98;;;;;;;5.57;100.00;97308.13;5048462;28;20080;-50
2022/03/15 06:58:59;;;;;;;26.77;18.27;;;;;;;6.40;100.00;97300.41;5048073;28;20068;-47
2022/03/15 07:01:27;;;;;;;26.45;18.27;;;;;;;6.40;100.00;97296.03;5048058;28;20518;-49
2022/03/15 07:03:56;;;;;;;28.70;19.13;;;;;;;6.48;100.00;97286.84;5048563;28;20075;-47
2022/03/15 07:06:24;;;;;;;24.30;18.00;;;;;;;6.69;100.00;97279.34;5052226;28;20068;-48
2022/03/15 07:08:54;;;;;;;27.13;18.75;;;;;;;6.81;100.00;97282.03;5047868;28;20207;-49
2022/03/15 07:11:23;;;;;;;28.67;18.48;;;;;;;6.80;100.00;97285.56;5048868;28;20538;-46
2022/03/15 07:13:51;;;;;;;32.05;19.33;;;;;;;7.26;100.00;97300.00;5048390;28;20044;-49
2022/03/15 07:16:19;;;;;;;30.23;19.58;;;;;;;7.61;100.00;97295.84;5048262;28;20270;-47
2022/03/15 07:18:48;;;;;;;28.27;18.85;;;;;;;7.82;100.00;97284.81;5047863;28;20091;-49
2022/03/15 07:21:16;;;;;;;26.17;18.05;;;;;;;7.80;100.00;97292.78;5048331;28;20077;-48
2022/03/15 07:23:44;;;;;;;25.75;16.92;;;;;;;8.58;100.00;97277.69;5048240;28;20089;-49
2022/03/15 07:26:14;;;;;;;26.23;18.00;;;;;;;8.43;100.00;97282.25;5048479;28;20084;-49
2022/03/15 07:28:42;;;;;;;22.90;17.83;;;;;;;7.84;100.00;97273.25;5048524;28;20534;-52
2022/03/15 07:31:14;;;;;;;23.10;16.52;;;;;;;7.99;100.00;97263.44;5047824;28;20389;-47
2022/03/15 07:33:43;;;;;;;23.95;16.58;;;;;;;8.39;100.00;97272.91;5048249;28;20071;-49
2022/03/15 07:36:14;;;;;;;26.23;17.75;;;;;;;7.82;100.00;97269.06;5048854;28;20057;-50
2022/03/15 07:38:42;;;;;;;25.30;17.48;;;;;;;8.27;100.00;97261.47;5048079;28;20519;-46
2022/03/15 07:41:11;;;;;;;25.92;17.67;;;;;;;8.22;100.00;97256.53;5048470;28;20559;-51
2022/03/15 07:43:40;;;;;;;28.17;18.80;;;;;;;8.29;100.00;97255.16;5042417;28;20065;-49
2022/03/15 07:46:08;;;;;;;25.15;17.27;;;;;;;8.43;100.00;97258.59;5047752;28;20065;-50
2022/03/15 07:48:37;;;;;;;23.90;17.77;;;;;;;8.50;100.00;97262.47;5047406;28;20064;-55
2022/03/15 07:51:05;;;;;;;23.15;17.10;;;;;;;8.31;100.00;97286.56;5047810;28;20488;-49
2022/03/15 07:53:33;;;;;;;22.75;16.50;;;;;;;8.70;100.00;97296.00;5049786;28;20443;-49
2022/03/15 07:56:01;;;;;;;25.13;17.55;;;;;;;8.40;100.00;97288.59;5047718;28;20057;-49
2022/03/15 07:58:30;;;;;;;27.30;18.15;;;;;;;8.65;100.00;97299.94;5047646;28;20083;-46
2022/03/15 08:01:00;;;;;;;23.48;16.60;;;;;;;8.49;100.00;97308.94;5047298;28;20056;-51
2022/03/15 08:03:28;;;;;;;21.42;15.93;;;;;;;8.48;100.00;97312.50;5050403;28;20542;-46
2022/03/15 08:05:57;;;;;;;21.67;15.52;;;;;;;8.28;100.00;97305.19;5054141;28;20080;-52
2022/03/15 08:08:25;;;;;;;21.50;15.15;;;;;;;8.56;100.00;97307.53;5050750;28;20083;-51
2022/03/15 08:10:54;;;;;;;21.33;15.75;;;;;;;8.55;100.00;97299.75;5051396;28;20060;-52
2022/03/15 08:13:22;;;;;;;20.08;15.65;;;;;;;8.70;100.00;97306.53;5051553;28;20072;-51
2022/03/15 08:15:50;;;;;;;21.15;14.93;;;;;;;8.24;100.00;97299.31;5051496;28;20522;-50
2022/03/15 08:18:20;;;;;;;20.98;15.80;;;;;;;8.42;100.00;97288.47;5051377;28;20071;-45
2022/03/15 08:20:49;;;;;;;18.95;15.65;;;;;;;8.66;100.00;97280.56;5051698;28;20522;-47
2022/03/15 08:23:18;;;;;;;19.30;15.20;;;;;;;8.84;100.00;97286.25;5051432;28;20573;-47
2022/03/15 08:25:46;;;;;;;22.95;17.27;;;;;;;9.22;100.00;97267.59;5051648;28;20549;-47
2022/03/15 08:28:14;;;;;;;23.02;15.90;;;;;;;8.82;100.00;97269.78;5051143;28;20527;-46
2022/03/15 08:30:43;;;;;;;21.20;15.40;;;;;;;8.69;100.00;97270.66;5050767;28;20472;-51
2022/03/15 08:33:11;;;;;;;19.35;14.90;;;;;;;9.18;100.00;97272.25;5050588;28;20065;-47
2022/03/15 08:35:41;;;;;;;21.92;16.17;;;;;;;9.06;100.00;97265.31;5045493;28;20100;-48
2022/03/15 08:38:11;;;;;;;22.80;15.70;;;;;;;9.20;100.00;97266.91;5046656;28;20091;-47
2022/03/15 08:40:39;;;;;;;26.33;18.02;;;;;;;9.83;100.00;97264.69;5048207;28;20060;-52
2022/03/15 08:43:08;;;;;;;20.60;15.43;;;;;;;10.22;100.00;97263.34;5050495;28;20064;-51
2022/03/15 08:45:36;;;;;;;21.25;15.93;;;;;;;9.53;100.00;97274.00;5051102;28;20444;-52
2022/03/15 08:48:06;;;;;;;21.67;15.50;;;;;;;10.19;100.00;97274.97;5050686;28;20080;-53
2022/03/15 08:50:35;;;;;;;22.25;14.85;;;;;;;9.68;100.00;97275.47;5046876;28;20072;-51
2022/03/15 08:53:05;;;;;;;21.33;15.27;;;;;;;9.71;100.00;97277.88;5065143;28;20056;-48
2022/03/15 08:55:33;;;;;;;18.63;14.65;;;;;;;10.04;100.00;97278.81;5050728;28;20081;-46
2022/03/15 08:58:02;;;;;;;18.95;14.27;;;;;;;10.14;100.00;97271.00;5050084;28;20533;-47
2022/03/15 09:00:30;;;;;;;20.05;15.40;;;;;;;9.91;100.00;97254.38;5050335;28;20068;-51
2022/03/15 09:03:02;;;;;;;19.70;14.00;;;;;;;10.53;100.00;97261.75;5049104;28;20091;-48
2022/03/15 09:05:30;;;;;;;19.80;14.60;;;;;;;10.67;100.00;97250.06;5051153;28;20432;-51
2022/03/15 09:07:59;;;;;;;20.50;13.70;;;;;;;11.20;100.00;97252.69;5053580;28;20694;-49
2022/03/15 09:10:28;;;;;;;20.23;14.20;;;;;;;11.22;100.00;97240.22;5050355;28;20064;-49
2022/03/15 09:12:57;;;;;;;22.37;14.17;;;;;;;11.61;100.00;97240.41;5049780;28;20083;-49
2022/03/15 09:15:25;;;;;;;23.10;14.48;;;;;;;10.85;100.00;97237.16;5049796;28;20083;-53
2022/03/15 09:17:54;;;;;;;18.30;13.77;;;;;;;10.86;100.00;97229.09;5050161;28;20085;-51
2022/03/15 09:20:25;;;;;;;19.48;13.23;;;;;;;11.25;100.00;97233.81;5048989;28;20079;-48
2022/03/15 09:22:54;;;;;;;17.10;13.23;;;;;;;10.84;100.00;97232.81;5050402;28;20083;-49
2022/03/15 09:25:22;;;;;;;23.95;13.60;;;;;;;11.71;100.00;97222.81;5048490;28;20092;-50
2022/03/15 09:27:52;;;;;;;17.52;12.82;;;;;;;10.73;100.00;97227.59;5050077;28;20572;-48
2022/03/15 09:30:20;;;;;;;19.67;12.50;;;;;;;12.05;100.00;97218.09;5049779;28;20064;-47
2022/03/15 09:32:49;;;;;;;15.07;12.15;;;;;;;11.92;100.00;97220.13;5049721;28;20076;-46
2022/03/15 09:35:18;;;;;;;19.45;12.27;;;;;;;12.03;100.00;97212.06;5048183;28;20085;-49
2022/03/15 09:37:49;;;;;;;17.75;11.98;;;;;;;12.18;100.00;97206.41;5049227;28;20063;-49
2022/03/15 09:40:18;;;;;;;;;;;;;;;12.28;100.00;97202.81;5049990;28;20099;-46
2022/03/15 09:42:49;;;;;;;13.85;11.15;;;;;;;12.16;100.00;97205.72;5050135;28;19970;-52
2022/03/15 09:45:19;;;;;;;;;;;;;;;11.92;100.00;97211.38;5050352;28;20068;-48
2022/03/15 09:47:51;;;;;;;14.45;10.40;;;;;;;11.57;100.00;97200.22;5049425;28;20382;-46
2022/03/15 09:50:21;;;;;;;13.57;9.48;;;;;;;11.90;100.00;97195.63;5047090;28;20056;-49
2022/03/15 09:52:49;;;;;;;15.13;10.50;;;;;;;12.21;100.00;97188.44;5043212;28;20533;-52
2022/03/15 09:55:17;;;;;;;15.07;10.55;;;;;;;12.45;98.14;97176.66;5051607;28;20072;-51
2022/03/15 09:57:46;;;;;;;14.80;11.35;;;;;;;12.95;93.31;97165.91;5043183;28;20080;-54
2022/03/15 10:00:16;;;;;;;13.07;10.02;;;;;;;13.02;91.36;97157.25;5042983;28;20310;-55
2022/03/15 10:02:46;;;;;;;17.55;10.93;;;;;;;13.20;92.75;97156.50;5049483;28;20060;-47
2022/03/15 10:05:15;;;;;;;17.55;10.68;;;;;;;13.07;88.10;97155.03;5050075;28;20073;-49
2022/03/15 10:07:43;;;;;;;14.30;10.38;;;;;;;12.93;89.29;97149.31;5051960;28;20037;-49
2022/03/15 10:10:14;;;;;;;14.10;10.13;;;;;;;13.09;85.90;97146.94;5048964;28;20316;-51
2022/03/15 10:12:43;;;;;;;17.45;10.95;;;;;;;12.69;90.81;97166.47;5049235;28;20458;-46
2022/03/15 10:15:13;;;;;;;16.20;10.82;;;;;;;12.18;100.00;97179.97;5049499;28;20064;-46
2022/03/15 10:17:48;;;;;;;16.48;10.25;;;;;;;12.35;100.00;97188.09;5048920;28;20076;-47
2022/03/15 10:20:18;;;;;;;15.75;10.07;;;;;;;11.85;100.00;97187.28;5049589;28;20096;-47
2022/03/15 10:22:55;;;;;;;16.15;10.30;;;;;;;12.09;100.00;97187.75;5048750;28;20637;-51
2022/03/15 10:25:24;;;;;;;13.30;10.40;;;;;;;12.36;100.00;97188.91;5048760;28;20091;-50
2022/03/15 10:27:54;;;;;;;18.37;10.30;;;;;;;12.43;100.00;97195.31;5049090;28;20044;-49
2022/03/15 10:30:24;;;;;;;15.85;10.98;;;;;;;12.91;98.55;97202.44;5048937;28;20056;-47
2022/03/15 10:32:54;;;;;;;13.52;9.77;;;;;;;12.61;98.75;97195.47;5047331;28;20068;-47
2022/03/15 10:35:24;;;;;;;13.68;9.77;;;;;;;12.85;100.00;97189.75;5049212;28;20455;-51
2022/03/15 10:37:54;;;;;;;14.27;9.90;;;;;;;12.64;98.76;97192.53;5053532;28;20553;-46
2022/03/15 10:40:32;;;;;;;12.98;9.32;;;;;;;13.09;95.73;97181.34;5048678;28;20076;-50
2022/03/15 10:43:07;;;;;;;12.75;9.80;;;;;;;12.56;98.47;97182.66;5032566;28;20547;-51
2022/03/15 10:45:37;;;;;;;13.48;10.30;;;;;;;12.79;98.34;97192.94;5035040;28;20073;-47
2022/03/15 10:48:17;;;;;;;13.05;10.70;;;;;;;13.46;88.16;97186.72;5048413;28;20057;-46
2022/03/15 10:50:54;;;;;;;15.70;10.65;;;;;;;13.33;89.24;97177.44;5048961;28;20072;-51
2022/03/15 10:53:28;;;;;;;17.52;9.88;;;;;;;12.96;92.60;97175.50;5051498;28;20048;-50
2022/03/15 10:56:12;;;;;;;12.00;9.85;;;;;;;13.13;95.87;97176.59;5048552;28;20099;-47
2022/03/15 10:58:45;;;;;;;13.90;10.00;;;;;;;13.60;86.88;97172.16;5047874;28;20480;-49
2022/03/15 11:01:14;;;;;;;14.65;9.82;;;;;;;13.35;89.99;97160.41;5048489;28;20064;-49
2022/03/15 11:03:57;;;;;;;13.35;9.75;;;;;;;13.67;82.86;97148.56;5048239;28;20560;-52
2022/03/15 11:06:31;;;;;;;17.02;10.20;;;;;;;13.78;82.69;97137.75;5050369;28;20052;-51
2022/03/15 11:08:59;;;;;;;14.23;10.18;;;;;;;13.74;81.12;97133.75;5048387;28;20072;-49
2022/03/15 11:11:28;;;;;;;13.10;10.02;;;;;;;13.54;83.03;97133.81;5048853;28;20077;-53
2022/03/15 11:14:05;;;;;;;13.38;9.90;;;;;;;13.77;83.09;97122.84;5048210;28;20073;-51
2022/03/15 11:16:37;;;;;;;11.98;9.45;;;;;;;13.64;86.07;97119.69;5048532;28;20080;-51
2022/03/15 11:19:07;;;;;;;17.77;10.38;;;;;;;13.54;88.50;97104.69;5044190;28;20072;-49
2022/03/15 11:21:36;;;;;;;13.45;9.57;;;;;;;13.59;87.47;97106.03;5048600;28;20073;-47
2022/03/15 11:24:06;;;;;;;13.65;10.75;;;;;;;13.91;86.16;97110.91;5048491;28;20060;-47
2022/03/15 11:26:35;;;;;;;14.60;10.50;;;;;;;13.26;93.74;97103.81;5049163;28;20076;-49
2022/03/15 11:29:03;;;;;;;14.65;10.68;;;;;;;14.19;83.29;97101.91;5043168;28;20458;-52